createdAt,value
2023-03-05T00:02:09.347Z,-0.40
2023-03-05T00:04:36.235Z,-0.19
2023-03-05T00:07:03.350Z,-0.24
2023-03-05T00:09:30.226Z,-0.16
2023-03-05T00:11:57.247Z,-0.09
2023-03-05T00:14:24.254Z,-0.15
2023-03-05T00:16:51.275Z,-0.05
2023-03-05T00:19:18.236Z,-0.14
2023-03-05T00:21:45.285Z,0.03
2023-03-05T00:24:15.156Z,0.02
2023-03-05T00:26:43.320Z,-0.05
2023-03-05T00:29:14.615Z,0.06
2023-03-05T00:31:41.854Z,0.21
2023-03-05T00:34:12.596Z,0.12
2023-03-05T00:36:42.079Z,0.19
2023-03-05T00:39:09.015Z,0.18
2023-03-05T00:41:35.918Z,0.07
2023-03-05T00:44:03.236Z,0.14
2023-03-05T00:46:30.699Z,0.27
2023-03-05T00:48:57.847Z,0.15
2023-03-05T00:51:25.825Z,0.13
2023-03-05T00:53:53.972Z,0.21
2023-03-05T00:56:21.420Z,0.14
2023-03-05T00:58:48.520Z,-0.01
2023-03-05T01:01:15.796Z,0.07
2023-03-05T01:03:42.749Z,-0.00
2023-03-05T01:06:12.468Z,-0.08
2023-03-05T01:08:39.935Z,-0.19
2023-03-05T01:11:08.183Z,-0.02
2023-03-05T01:13:35.582Z,-0.14
2023-03-05T01:16:03.936Z,0.03
2023-03-05T01:18:30.891Z,0.02
2023-03-05T01:20:57.821Z,0.02
2023-03-05T01:23:24.763Z,-0.06
2023-03-05T01:25:59.253Z,-0.25
2023-03-05T01:28:28.105Z,-0.10
2023-03-05T01:30:55.232Z,0.11
2023-03-05T01:33:22.215Z,-0.01
2023-03-05T01:35:49.684Z,-0.00
2023-03-05T01:38:17.592Z,-0.05
2023-03-05T01:40:45.063Z,-0.32
2023-03-05T01:43:12.191Z,-0.07
2023-03-05T01:46:00.261Z,0.07
2023-03-05T01:48:27.997Z,-0.21
2023-03-05T01:50:55.075Z,-0.18
2023-03-05T01:53:22.159Z,-0.30
2023-03-05T01:55:49.460Z,-0.32
2023-03-05T01:58:17.455Z,-0.34
2023-03-05T02:00:47.435Z,-0.32
2023-03-05T02:03:14.801Z,-0.33
2023-03-05T02:05:42.798Z,-0.16
2023-03-05T02:08:15.634Z,-0.23
2023-03-05T02:10:46.746Z,-0.26
2023-03-05T02:13:24.798Z,-0.17
2023-03-05T02:15:54.623Z,-0.01
2023-03-05T02:18:22.687Z,0.06
2023-03-05T02:20:55.829Z,0.10
2023-03-05T02:23:26.211Z,-0.00
2023-03-05T02:25:53.929Z,-0.02
2023-03-05T02:28:48.936Z,0.13
2023-03-05T02:31:21.754Z,0.02
2023-03-05T02:33:49.798Z,-0.14
2023-03-05T02:36:18.627Z,0.04
2023-03-05T02:38:46.161Z,0.11
2023-03-05T02:41:14.261Z,0.00
2023-03-05T02:43:42.155Z,-0.01
2023-03-05T02:46:09.837Z,-0.13
2023-03-05T02:48:36.998Z,-0.10
2023-03-05T02:51:07.019Z,-0.01
2023-03-05T02:53:34.319Z,-0.09
2023-03-05T02:56:01.350Z,-0.04
2023-03-05T02:58:29.012Z,0.01
2023-03-05T03:00:56.166Z,-0.18
2023-03-05T03:03:23.386Z,-0.05
2023-03-05T03:05:50.203Z,-0.01
2023-03-05T03:08:17.209Z,0.10
2023-03-05T03:10:44.222Z,0.28
2023-03-05T03:13:11.215Z,0.00
2023-03-05T03:15:38.086Z,0.05
2023-03-05T03:18:05.205Z,0.07
2023-03-05T03:20:32.219Z,-0.26
2023-03-05T03:22:59.219Z,0.03
2023-03-05T03:25:26.314Z,0.01
2023-03-05T03:27:53.393Z,0.03
2023-03-05T03:30:20.506Z,0.13
2023-03-05T03:32:47.561Z,0.11
2023-03-05T03:35:14.629Z,0.03
2023-03-05T03:37:41.630Z,0.02
2023-03-05T03:40:10.171Z,0.15
2023-03-05T03:42:37.140Z,0.04
2023-03-05T03:45:04.578Z,-0.09
2023-03-05T03:47:31.656Z,-0.22
2023-03-05T03:49:58.875Z,-0.05
2023-03-05T03:52:26.522Z,-0.17
2023-03-05T03:54:54.245Z,-0.05
2023-03-05T03:57:21.377Z,-0.25
2023-03-05T03:59:48.318Z,-0.07
2023-03-05T04:02:15.317Z,-0.15
2023-03-05T04:04:42.286Z,-0.13
2023-03-05T04:07:09.563Z,-0.08
2023-03-05T04:09:36.488Z,-0.17
2023-03-05T04:12:03.758Z,-0.08
2023-03-05T04:14:30.688Z,-0.20
2023-03-05T04:16:57.736Z,-0.07
2023-03-05T04:19:24.649Z,0.06
2023-03-05T04:21:51.575Z,0.01
2023-03-05T04:24:18.505Z,-0.15
2023-03-05T04:26:45.702Z,-0.12
2023-03-05T04:29:12.656Z,-0.70
2023-03-05T04:31:39.624Z,-0.84
2023-03-05T04:34:06.511Z,-0.77
2023-03-05T04:36:33.457Z,-0.67
2023-03-05T04:39:00.378Z,-0.53
2023-03-05T04:41:27.312Z,-0.21
2023-03-05T04:43:54.209Z,-0.20
2023-03-05T04:46:21.274Z,-0.25
2023-03-05T04:48:48.204Z,-0.08
2023-03-05T04:51:15.135Z,-0.00
2023-03-05T04:53:42.039Z,0.10
2023-03-05T04:56:08.984Z,0.04
2023-03-05T04:58:36.029Z,0.12
2023-03-05T05:01:04.701Z,0.06
2023-03-05T05:03:32.148Z,0.10
2023-03-05T05:06:00.304Z,0.23
2023-03-05T05:08:28.080Z,0.40
2023-03-05T05:11:00.258Z,0.35
2023-03-05T05:13:27.664Z,0.69
2023-03-05T05:15:54.902Z,0.88
2023-03-05T05:18:21.911Z,1.05
2023-03-05T05:20:49.203Z,1.25
2023-03-05T05:23:17.466Z,1.37
2023-03-05T05:25:44.776Z,1.59
2023-03-05T05:28:12.356Z,1.60
2023-03-05T05:30:39.487Z,1.70
2023-03-05T05:33:06.542Z,1.71
2023-03-05T05:35:33.504Z,1.64
2023-03-05T05:38:00.394Z,1.53
2023-03-05T05:40:27.339Z,1.44
2023-03-05T05:42:54.450Z,1.32
2023-03-05T05:45:21.524Z,1.25
2023-03-05T05:47:48.628Z,1.21
2023-03-05T05:50:15.645Z,1.08
2023-03-05T05:52:42.636Z,1.03
2023-03-05T05:55:10.114Z,1.16
2023-03-05T05:57:37.392Z,1.10
2023-03-05T06:00:07.638Z,1.56
2023-03-05T06:02:39.995Z,1.50
2023-03-05T06:05:08.638Z,1.29
2023-03-05T06:07:36.067Z,1.31
2023-03-05T06:10:03.704Z,0.80
2023-03-05T06:12:30.691Z,1.12
2023-03-05T06:14:58.009Z,1.32
2023-03-05T06:17:30.575Z,1.42
2023-03-05T06:19:58.808Z,1.21
2023-03-05T06:22:27.081Z,1.22
2023-03-05T06:24:57.100Z,1.08
2023-03-05T06:27:23.971Z,1.35
2023-03-05T06:29:54.059Z,1.61
2023-03-05T06:32:21.454Z,1.52
2023-03-05T06:34:48.648Z,1.26
2023-03-05T06:37:15.776Z,1.27
2023-03-05T06:39:43.041Z,1.24
2023-03-05T06:42:10.140Z,1.43
2023-03-05T06:44:45.198Z,1.40
2023-03-05T06:47:12.906Z,1.54
2023-03-05T06:49:39.832Z,1.62
2023-03-05T06:52:07.431Z,1.17
2023-03-05T06:54:34.377Z,1.15
2023-03-05T06:57:03.889Z,0.88
2023-03-05T06:59:30.866Z,0.93
2023-03-05T07:01:57.847Z,0.85
2023-03-05T07:04:24.737Z,0.33
2023-03-05T07:06:51.905Z,0.64
2023-03-05T07:09:18.790Z,0.20
2023-03-05T07:11:45.904Z,0.24
2023-03-05T07:14:12.884Z,0.67
2023-03-05T07:16:40.048Z,0.96
2023-03-05T07:19:07.478Z,1.31
2023-03-05T07:21:38.241Z,1.36
2023-03-05T07:24:07.913Z,1.44
2023-03-05T07:26:35.136Z,1.28
2023-03-05T07:29:03.098Z,0.49
2023-03-05T07:31:30.844Z,0.55
2023-03-05T07:33:59.487Z,1.01
2023-03-05T07:36:26.909Z,1.25
2023-03-05T07:38:54.080Z,1.29
2023-03-05T07:41:21.281Z,1.27
2023-03-05T07:43:50.916Z,1.56
2023-03-05T07:46:19.914Z,1.71
2023-03-05T07:48:47.052Z,1.39
2023-03-05T07:51:17.150Z,1.64
2023-03-05T07:53:45.551Z,1.86
2023-03-05T07:56:12.867Z,2.03
2023-03-05T07:58:39.891Z,2.30
2023-03-05T08:01:13.391Z,3.62
2023-03-05T08:03:41.547Z,3.93
2023-03-05T08:06:10.516Z,3.93
2023-03-05T08:08:38.470Z,5.17
2023-03-05T08:11:07.863Z,4.35
2023-03-05T08:13:34.965Z,4.46
2023-03-05T08:16:12.121Z,3.61
2023-03-05T08:18:39.428Z,3.75
2023-03-05T08:21:06.784Z,3.32
2023-03-05T08:23:33.853Z,3.00
2023-03-05T08:26:00.830Z,2.83
2023-03-05T08:28:29.447Z,2.86
2023-03-05T08:30:56.524Z,2.97
2023-03-05T08:33:23.493Z,2.46
2023-03-05T08:35:50.433Z,2.30
2023-03-05T08:38:19.428Z,2.85
2023-03-05T08:40:48.415Z,2.85
2023-03-05T08:43:19.940Z,2.58
2023-03-05T08:45:46.953Z,2.77
2023-03-05T08:48:13.862Z,2.74
2023-03-05T08:50:40.978Z,2.92
2023-03-05T08:53:07.980Z,2.44
2023-03-05T08:55:35.105Z,3.26
2023-03-05T08:58:02.093Z,2.92
2023-03-05T09:00:29.104Z,2.80
2023-03-05T09:02:56.138Z,3.10
2023-03-05T09:05:23.284Z,3.76
2023-03-05T09:07:50.235Z,3.65
2023-03-05T09:10:17.327Z,3.34
2023-03-05T09:12:44.870Z,3.11
2023-03-05T09:15:12.591Z,3.45
2023-03-05T09:17:39.773Z,3.87
2023-03-05T09:20:07.584Z,4.26
2023-03-05T09:22:34.481Z,3.69
2023-03-05T09:25:01.500Z,4.10
2023-03-05T09:27:28.412Z,3.50
2023-03-05T09:29:55.328Z,2.50
2023-03-05T09:32:22.261Z,2.38
2023-03-05T09:34:49.405Z,2.91
2023-03-05T09:37:16.369Z,3.06
2023-03-05T09:39:43.337Z,3.23
2023-03-05T09:42:34.685Z,3.10
2023-03-05T09:45:09.369Z,2.72
2023-03-05T09:47:49.276Z,1.98
2023-03-05T09:50:22.245Z,2.18
2023-03-05T09:53:01.816Z,2.81
2023-03-05T09:55:43.469Z,2.52
2023-03-05T09:58:18.230Z,2.62
2023-03-05T10:00:48.935Z,2.88
2023-03-05T10:03:28.608Z,2.99
2023-03-05T10:06:17.485Z,2.44
2023-03-05T10:09:06.886Z,2.90
2023-03-05T10:11:36.585Z,3.72
2023-03-05T10:14:05.028Z,4.02
2023-03-05T10:16:50.951Z,3.59
2023-03-05T10:19:30.149Z,2.30
2023-03-05T10:22:29.436Z,2.66
2023-03-05T10:25:23.982Z,2.39
2023-03-05T10:28:32.106Z,3.02
2023-03-05T10:31:18.767Z,2.80
2023-03-05T10:34:02.245Z,2.48
2023-03-05T10:36:46.771Z,3.54
2023-03-05T10:39:28.911Z,3.32
2023-03-05T10:42:33.943Z,3.31
2023-03-05T10:45:14.076Z,3.23
2023-03-05T10:48:01.632Z,3.13
2023-03-05T10:50:36.960Z,3.08
2023-03-05T10:53:10.225Z,2.92
2023-03-05T10:55:37.279Z,2.96
2023-03-05T10:58:12.569Z,3.12
2023-03-05T11:00:41.032Z,3.10
2023-03-05T11:03:11.035Z,3.10
2023-03-05T11:05:47.528Z,3.15
2023-03-05T11:08:34.544Z,3.20
2023-03-05T11:11:15.782Z,2.85
2023-03-05T11:13:53.616Z,2.99
2023-03-05T11:16:25.245Z,2.93
2023-03-05T11:19:19.161Z,2.44
2023-03-05T11:22:16.890Z,2.72
2023-03-05T11:24:45.387Z,2.28
2023-03-05T11:27:44.550Z,2.26
2023-03-05T11:30:35.549Z,2.42
2023-03-05T11:33:17.863Z,2.41
2023-03-05T11:35:45.403Z,2.35
2023-03-05T11:38:22.076Z,2.24
2023-03-05T11:40:49.740Z,2.02
2023-03-05T11:43:19.830Z,2.02
2023-03-05T11:45:51.009Z,2.01
2023-03-05T11:48:35.055Z,1.85
2023-03-05T11:51:19.791Z,2.11
2023-03-05T11:53:52.461Z,2.47
2023-03-05T11:56:37.092Z,2.52
2023-03-05T11:59:27.029Z,2.53
2023-03-05T12:01:58.439Z,2.32
2023-03-05T12:04:25.882Z,2.56
2023-03-05T12:07:03.068Z,2.51
2023-03-05T12:09:48.832Z,2.19
2023-03-05T12:12:36.011Z,2.39
2023-03-05T12:15:12.065Z,2.77
2023-03-05T12:18:05.519Z,2.82
2023-03-05T12:20:51.037Z,3.08
2023-03-05T12:23:20.834Z,2.37
2023-03-05T12:25:54.459Z,2.58
2023-03-05T12:28:54.679Z,2.61
2023-03-05T12:31:39.486Z,2.62
2023-03-05T12:34:47.145Z,2.14
2023-03-05T12:37:20.349Z,1.86
2023-03-05T12:39:58.253Z,1.53
2023-03-05T12:42:28.386Z,1.23
2023-03-05T12:45:30.188Z,1.11
2023-03-05T12:47:57.125Z,1.04
2023-03-05T12:50:29.810Z,0.74
2023-03-05T12:52:59.442Z,0.87
2023-03-05T12:55:35.610Z,0.82
2023-03-05T12:58:02.774Z,0.90
2023-03-05T13:00:36.001Z,1.02
2023-03-05T13:03:12.078Z,0.85
2023-03-05T13:05:39.581Z,0.70
2023-03-05T13:08:24.392Z,0.72
2023-03-05T13:11:03.872Z,0.47
2023-03-05T13:13:39.343Z,0.09
2023-03-05T13:16:16.627Z,-0.04
2023-03-05T13:18:48.317Z,-0.12
2023-03-05T13:21:21.288Z,-0.07
2023-03-05T13:23:54.596Z,0.02
2023-03-05T13:26:25.515Z,0.17
2023-03-05T13:29:15.730Z,-0.03
2023-03-05T13:31:48.663Z,-0.03
2023-03-05T13:34:27.976Z,-0.22
2023-03-05T13:37:03.924Z,-0.40
2023-03-05T13:39:39.991Z,-0.32
2023-03-05T13:42:30.938Z,-0.52
2023-03-05T13:45:07.285Z,-0.32
2023-03-05T13:47:35.926Z,-0.27
2023-03-05T13:50:06.416Z,-0.82
2023-03-05T13:52:38.447Z,-0.62
2023-03-05T13:55:14.643Z,-0.59
2023-03-05T13:57:47.258Z,-0.65
2023-03-05T14:00:34.297Z,-0.59
2023-03-05T14:03:20.629Z,-0.66
2023-03-05T14:05:48.831Z,-0.61
2023-03-05T14:08:26.957Z,-0.89
2023-03-05T14:10:56.314Z,-0.90
2023-03-05T14:13:26.608Z,-0.82
2023-03-05T14:16:15.905Z,-0.91
2023-03-05T14:18:57.887Z,-1.14
2023-03-05T14:21:25.684Z,-1.06
2023-03-05T14:23:54.098Z,-1.03
2023-03-05T14:26:21.074Z,-0.95
2023-03-05T14:29:00.649Z,-0.92
2023-03-05T14:31:35.310Z,-0.92
2023-03-05T14:34:06.467Z,-0.93
2023-03-05T14:36:34.176Z,-0.96
2023-03-05T14:39:01.302Z,-0.96
2023-03-05T14:41:40.250Z,-0.96
2023-03-05T14:44:25.716Z,-0.93
2023-03-05T14:46:52.672Z,-1.11
2023-03-05T14:49:19.601Z,-1.11
2023-03-05T14:51:47.383Z,-1.06
2023-03-05T14:54:24.028Z,-1.20
2023-03-05T14:56:51.335Z,-1.23
2023-03-05T14:59:19.211Z,-1.18
2023-03-05T15:01:46.581Z,-1.36
2023-03-05T15:04:13.762Z,-1.34
2023-03-05T15:06:42.234Z,-1.37
2023-03-05T15:09:12.608Z,-1.27
2023-03-05T15:11:39.536Z,-1.34
2023-03-05T15:14:06.457Z,-1.35
2023-03-05T15:16:33.576Z,-1.43
2023-03-05T15:19:00.482Z,-1.35
2023-03-05T15:21:27.509Z,-1.55
2023-03-05T15:23:54.449Z,-1.39
2023-03-05T15:26:21.595Z,-1.43
2023-03-05T15:28:48.576Z,-1.33
2023-03-05T15:31:17.321Z,-1.38
2023-03-05T15:33:44.397Z,-1.34
2023-03-05T15:36:11.473Z,-1.28
2023-03-05T15:38:38.400Z,-1.13
2023-03-05T15:41:05.800Z,-1.16
2023-03-05T15:43:32.734Z,-1.19
2023-03-05T15:45:59.750Z,-1.21
2023-03-05T15:48:26.735Z,-1.16
2023-03-05T15:50:53.771Z,-1.16
2023-03-05T15:53:20.742Z,-1.12
2023-03-05T15:55:47.744Z,-0.93
2023-03-05T15:58:16.655Z,-0.74
2023-03-05T16:00:43.698Z,-0.78
2023-03-05T16:03:10.615Z,-0.86
2023-03-05T16:05:38.448Z,-0.93
2023-03-05T16:08:06.355Z,-0.91
2023-03-05T16:10:34.964Z,-0.86
2023-03-05T16:13:05.985Z,-0.67
2023-03-05T16:15:34.559Z,-0.80
2023-03-05T16:18:06.381Z,-0.61
2023-03-05T16:20:33.684Z,-0.62
2023-03-05T16:23:00.692Z,-0.62
2023-03-05T16:25:27.813Z,-0.57
2023-03-05T16:27:54.741Z,-0.71
2023-03-05T16:30:21.857Z,-0.62
2023-03-05T16:32:48.897Z,-0.73
2023-03-05T16:35:16.001Z,-0.75
2023-03-05T16:37:43.290Z,-0.66
2023-03-05T16:40:11.791Z,-0.89
2023-03-05T16:42:38.744Z,-1.06
2023-03-05T16:45:07.216Z,-0.86
2023-03-05T16:47:34.205Z,-1.01
2023-03-05T16:50:01.326Z,-1.03
2023-03-05T16:52:29.107Z,-1.00
2023-03-05T16:54:56.275Z,-1.02
2023-03-05T16:57:23.276Z,-1.20
2023-03-05T16:59:50.309Z,-1.03
2023-03-05T17:02:17.226Z,-1.08
2023-03-05T17:04:45.064Z,-0.87
2023-03-05T17:07:12.044Z,-0.71
2023-03-05T17:09:39.727Z,-0.81
2023-03-05T17:12:06.970Z,-0.88
2023-03-05T17:14:34.244Z,-0.74
2023-03-05T17:17:01.338Z,-0.62
2023-03-05T17:19:28.749Z,-0.72
2023-03-05T17:21:55.669Z,-0.62
2023-03-05T17:24:22.916Z,-0.64
2023-03-05T17:26:50.286Z,-0.51
2023-03-05T17:29:17.386Z,-0.83
2023-03-05T17:31:44.342Z,-0.71
2023-03-05T17:34:11.374Z,-0.46
2023-03-05T17:36:38.278Z,-0.63
2023-03-05T17:39:05.326Z,-0.60
2023-03-05T17:41:32.485Z,-0.46
2023-03-05T17:43:59.490Z,-0.38
2023-03-05T17:46:26.459Z,-0.48
2023-03-05T17:48:53.479Z,-0.47
2023-03-05T17:51:20.525Z,-0.44
2023-03-05T17:53:47.549Z,-0.49
2023-03-05T17:56:15.701Z,-0.52
2023-03-05T17:58:43.243Z,-0.64
2023-03-05T18:01:10.161Z,-0.53
2023-03-05T18:03:37.836Z,-0.56
2023-03-05T18:06:05.305Z,-0.61
2023-03-05T18:08:32.576Z,-0.42
2023-03-05T18:10:59.524Z,-0.53
2023-03-05T18:13:26.933Z,-0.50
2023-03-05T18:15:53.790Z,-0.66
2023-03-05T18:18:20.757Z,-0.57
2023-03-05T18:20:47.702Z,-0.69
2023-03-05T18:23:15.349Z,-0.55
2023-03-05T18:25:44.923Z,-0.40
2023-03-05T18:28:15.338Z,-0.35
2023-03-05T18:30:44.783Z,-0.55
2023-03-05T18:33:18.898Z,-0.53
2023-03-05T18:35:46.553Z,-0.68
2023-03-05T18:38:13.500Z,-0.52
2023-03-05T18:40:41.740Z,-0.72
2023-03-05T18:43:09.955Z,-0.76
2023-03-05T18:45:37.103Z,-0.74
2023-03-05T18:48:04.186Z,-0.56
2023-03-05T18:50:31.161Z,-0.51
2023-03-05T18:52:58.097Z,-0.61
2023-03-05T18:55:28.258Z,-0.68
2023-03-05T18:57:55.722Z,-0.57
2023-03-05T19:00:25.665Z,-0.43
2023-03-05T19:02:52.864Z,-0.34
2023-03-05T19:05:20.284Z,-0.32
2023-03-05T19:07:48.233Z,-0.24
2023-03-05T19:10:16.314Z,-0.20
2023-03-05T19:12:43.842Z,-0.16
2023-03-05T19:15:12.073Z,-0.05
2023-03-05T19:17:39.585Z,-0.12
2023-03-05T19:20:07.650Z,-0.28
2023-03-05T19:22:34.953Z,-0.10
2023-03-05T19:25:02.192Z,-0.05
2023-03-05T19:27:29.414Z,-0.10
2023-03-05T19:29:56.391Z,-0.09
2023-03-05T19:32:24.121Z,-0.19
2023-03-05T19:34:54.334Z,-0.14
2023-03-05T19:37:21.455Z,-0.20
2023-03-05T19:39:48.592Z,-0.11
2023-03-05T19:42:15.548Z,-0.01
2023-03-05T19:44:42.998Z,-0.23
2023-03-05T19:47:10.040Z,-0.15
2023-03-05T19:49:36.964Z,-0.18
2023-03-05T19:52:04.614Z,-0.33
2023-03-05T19:54:31.988Z,-0.34
2023-03-05T19:56:59.096Z,-0.38
2023-03-05T19:59:26.346Z,-0.50
2023-03-05T20:01:53.680Z,-0.44
2023-03-05T20:04:22.988Z,-0.56
2023-03-05T20:06:50.378Z,-0.65
2023-03-05T20:09:17.662Z,-0.61
2023-03-05T20:11:45.560Z,-0.67
2023-03-05T20:14:12.870Z,-0.69
2023-03-05T20:16:40.055Z,-0.79
2023-03-05T20:19:13.794Z,-0.69
2023-03-05T20:21:41.469Z,-0.69
2023-03-05T20:24:12.144Z,-0.52
2023-03-05T20:26:41.129Z,-0.52
2023-03-05T20:29:09.007Z,-0.55
2023-03-05T20:31:37.542Z,-0.48
2023-03-05T20:34:12.387Z,-0.68
2023-03-05T20:36:39.749Z,-0.73
2023-03-05T20:39:07.627Z,-0.63
2023-03-05T20:41:36.586Z,-0.56
2023-03-05T20:44:04.025Z,-0.71
2023-03-05T20:46:33.967Z,-0.73
2023-03-05T20:49:02.857Z,-0.87
2023-03-05T20:51:35.797Z,-0.58
2023-03-05T20:54:05.839Z,-0.68
2023-03-05T20:56:34.569Z,-0.48
2023-03-05T20:59:03.544Z,-0.50
2023-03-05T21:01:33.287Z,-0.62
2023-03-05T21:04:00.846Z,-0.69
2023-03-05T21:06:29.501Z,-0.64
2023-03-05T21:08:56.863Z,-0.58
2023-03-05T21:11:24.005Z,-0.47
2023-03-05T21:13:51.086Z,-0.56
2023-03-05T21:16:20.861Z,-0.42
2023-03-05T21:18:47.975Z,-0.51
2023-03-05T21:21:15.010Z,-0.57
2023-03-05T21:23:42.005Z,-0.54
2023-03-05T21:26:08.962Z,-0.52
2023-03-05T21:28:36.305Z,-0.50
2023-03-05T21:31:14.696Z,-0.57
2023-03-05T21:33:42.220Z,-0.56
2023-03-05T21:36:09.888Z,-0.54
2023-03-05T21:38:37.206Z,-0.62
2023-03-05T21:41:04.886Z,-0.58
2023-03-05T21:43:32.424Z,-0.40
2023-03-05T21:46:01.593Z,-0.58
2023-03-05T21:48:29.399Z,-0.57
2023-03-05T21:50:56.512Z,-0.65
2023-03-05T21:53:24.147Z,-0.67
2023-03-05T21:55:51.807Z,-0.63
2023-03-05T21:58:18.781Z,-0.63
2023-03-05T22:00:45.802Z,-0.50
2023-03-05T22:03:12.938Z,-0.43
2023-03-05T22:05:43.085Z,-0.55
2023-03-05T22:08:10.120Z,-0.48
2023-03-05T22:10:37.022Z,-0.54
2023-03-05T22:13:09.006Z,-0.53
2023-03-05T22:15:42.162Z,-0.37
2023-03-05T22:18:09.625Z,-0.38
2023-03-05T22:20:36.695Z,-0.56
2023-03-05T22:23:04.854Z,-0.44
2023-03-05T22:25:32.159Z,-0.54
2023-03-05T22:27:59.100Z,-0.45
2023-03-05T22:30:26.095Z,-0.47
2023-03-05T22:32:54.080Z,-0.42
2023-03-05T22:35:21.274Z,-0.58
2023-03-05T22:37:48.401Z,-0.48
2023-03-05T22:40:18.457Z,-0.39
2023-03-05T22:42:45.681Z,-0.44
2023-03-05T22:45:14.697Z,-0.47
2023-03-05T22:47:41.796Z,-0.42
2023-03-05T22:50:09.461Z,-0.31
2023-03-05T22:52:36.480Z,-0.43
2023-03-05T22:55:03.878Z,-0.67
2023-03-05T22:57:32.628Z,-0.48
2023-03-05T22:59:59.708Z,-0.41
2023-03-05T23:02:26.780Z,-0.35
2023-03-05T23:04:54.075Z,-0.39
2023-03-05T23:07:29.333Z,-0.39
2023-03-05T23:10:26.667Z,-0.27
2023-03-05T23:12:55.752Z,-0.55
2023-03-05T23:15:31.441Z,-0.57
2023-03-05T23:17:59.098Z,-0.51
2023-03-05T23:20:29.906Z,-0.61
2023-03-05T23:22:56.908Z,-0.65
2023-03-05T23:25:26.695Z,-0.69
2023-03-05T23:27:54.567Z,-0.62
2023-03-05T23:30:28.859Z,-0.65
2023-03-05T23:32:55.768Z,-0.54
2023-03-05T23:35:28.388Z,-0.74
2023-03-05T23:37:57.496Z,-0.59
2023-03-05T23:40:40.140Z,-0.52
2023-03-05T23:43:07.829Z,-0.66
2023-03-05T23:45:34.991Z,-0.54
2023-03-05T23:48:01.949Z,-0.64
2023-03-05T23:50:34.752Z,-0.56
2023-03-05T23:53:02.556Z,-0.56
2023-03-05T23:55:40.800Z,-0.59
2023-03-05T23:58:08.267Z,-0.74
